Port Clinton, Ohio
Current Conditions -  °F | °C
As of 8:13 AM on Wednesday 22 Oct 2014 (Local Time) from KPCW Reporting Station
Overcast Overcast  
Wind Chill: 41°   Ceiling: 1900
Heat Index: 45°   Visibility: 10mi
Dew Point: 39°   Wind: 7mph
Humidity: 81%   Direction: 40°NE
Pressure: 30.26"   Gusts: NA
Location:  41.51°N, 82.94°W
Report Text: KPCW 221213Z AUTO 04006KT 10SM OVC019 07/04 A3026 RMK AO2 $
Loading
Personal Weather Stations






























Interactive Weather Map
Tropical Storm Tracking
New forecast layout! Learn more

10-Day Weather Forecast

Advertisements
Track Severe Weather on mobile